KOSA

Mount Pleasant Regional Airport

Mount Pleasant, Texas, USA
METAR KOSA 170055Z AUTO 13003KT 10SM CLR 13/09 A3023 RMK AO1 T01340086
Observed Flight Rules
Dec-17 @ 00:55 UTC (34 minutes ago) Visual Flight Rules
Wind Visibility Clouds
130° at 3 knots 10 miles
  • Clear skies
Temperatures Readings
Current 13°C / 55°F
Dewpoint 9°C / 48°F
Humidity 77%
Altimeter 30.23" Hg
Pressure 1024 hPa
Elevation 111
METAR KOSA 170055Z AUTO 13003KT 10SM CLR 13/09 A3023 RMK AO1 T01340086
Observed Flight Rules
Dec-17 @ 00:55 UTC
(34 minutes ago)
VFR
Wind Visibility
130° at 3 knots 10 miles
Clouds
  • Clear skies
Temperature Dewpoint
13°C / 55°F 9°C / 48°F
Humidity Altimeter Pressure
77% 30.23" Hg 1024 hPa